Salem, MA (01970)

2:10 AM EDT on September 01, 2016 (GMT -0400)
Chestnut Street | | Change Station

Elev 56 ft 42.52 °N, 70.90 °W | Updated 17 seconds ago

Overcast
Overcast
75.2 °F
Feels Like 75 °F
N
0.0
Wind Variable Wind from South
Gusts 0.0 mph

Today
High -- | Low -- °F
--% Chance of Precip.
Yesterday
High -- | Low -- °F
Precip. -- in
Pressure 29.81 in
Visibility 10.0 miles
Clouds Overcast 9000 ft
Heat Index 75 °F
Dew Point 70 °F
Humidity 84%
Rainfall 0.00 in
Snow Depth Not available.
6:09 AM 7:16 PM
Waning Crescent, 0% visible
METAR KBVY 010553Z AUTO 24007KT 10SM OVC090 23/21 A2982 RMK AO2 SLP093 T02330206 10250 20233 58009
Pressure 29.81 in
Visibility 10.0 miles
Clouds Overcast 9000 ft
Heat Index 75 °F
Dew Point 70 °F
Humidity 84%
Rainfall 0.00 in
Snow Depth Not available.
6:09 AM 7:16 PM
Waning Crescent, 0% visible
METAR KBVY 010553Z AUTO 24007KT 10SM OVC090 23/21 A2982 RMK AO2 SLP093 T02330206 10250 20233 58009

10-Day Weather Forecast

Almanac

Astronomy

Sep. 01, 2016 Rise Set
Actual Time
Civil Twilight
Nautical Twilight
Astronomical Twilight
Moon
Length of Visible Light
Length of Day
Tomorrow will be .
, % of the Moon is Illuminated

Today's Extremes

State Highs State Lows

Community

WunderPhotos

Upload Photos

1,936,313 photos uploaded!

WunderBlog® & News

Nearby

Air Quality

  Air Quality AQ Index Pollutant
Not available.

Snow Depth

Station Depth Elevation

Earthquake Activity

City Distance Mag. Time & Date
Minimum magnitude displayed is 2.5.

Coastal Water Temperatures

Place Temperature

Stations

Nearby Weather Stations

Station Location Temp. Windchill Dew Point Humidity Wind Precip. Elev Updated Type
                   

Watches & Warnings

There are currently no watches in effect.